Carl, Iowa
Current Conditions -  °F | °C
As of 7:55 AM on Wednesday 26 Nov 2014 (Local Time) from KCSQ Reporting Station
Haze Haze  
Wind Chill: 24°   Ceiling: 600
Heat Index: 34°   Visibility: 5mi
Dew Point: 34°   Wind: 14mph
Humidity: 100%   Direction: 300°WNW
Pressure: 29.83"   Gusts: NA
Location:  41.0285°N, 94.7568°W
Report Text: KCSQ 261355Z AUTO 30012KT 5SM BR OVC006 01/01 A2983 RMK AO2
Loading
Personal Weather Stations






























Interactive Weather Map New forecast layout! Learn more

10-Day Weather Forecast

Advertisements
Track Severe Weather on mobile